Time;durP1;ratioP1;P1;durP2;ratioP2;P2;SDS_P1;SDS_P2;PMS_P1;PMS_P2;Temp;Humidity;BMP_temperature;BMP_pressure;BME280_temperature;BME280_humidity;BME280_pressure;Samples;Min_cycle;Max_cycle;Signal;HPM_P1;HPM_P2
2021/09/15 00:00:50;;;;;;;5.88;4.60;;;20.20;99.90;;;;;;5043568;28;20033;-66
2021/09/15 00:03:15;;;;;;;4.70;4.22;;;20.10;99.90;;;;;;5033423;28;20033;-66
2021/09/15 00:05:41;;;;;;;5.35;3.83;;;20.10;99.90;;;;;;5034832;28;20103;-66
2021/09/15 00:08:06;;;;;;;5.30;4.05;;;20.10;99.90;;;;;;5036639;28;20025;-66
2021/09/15 00:10:35;;;;;;;5.50;4.13;;;20.10;99.90;;;;;;5047825;28;20116;-66
2021/09/15 00:13:01;;;;;;;5.72;3.97;;;20.10;99.90;;;;;;5037759;28;20082;-66
2021/09/15 00:15:26;;;;;;;8.20;4.18;;;20.10;99.90;;;;;;5050686;28;20429;-66
2021/09/15 00:17:52;;;;;;;5.95;4.35;;;20.20;99.90;;;;;;5031909;28;20034;-66
2021/09/15 00:20:17;;;;;;;5.07;4.07;;;20.20;99.90;;;;;;5032540;28;20030;-67
2021/09/15 00:22:43;;;;;;;4.85;4.35;;;20.20;99.90;;;;;;5052310;28;20017;-67
2021/09/15 00:25:09;;;;;;;4.40;3.95;;;20.20;99.90;;;;;;5052619;28;20017;-66
2021/09/15 00:27:34;;;;;;;5.80;4.75;;;20.20;99.90;;;;;;5053018;28;20029;-66
2021/09/15 00:30:00;;;;;;;4.43;4.03;;;20.20;99.90;;;;;;5052471;28;20474;-66
2021/09/15 00:32:26;;;;;;;4.30;4.00;;;20.20;99.90;;;;;;5051425;28;20035;-66
2021/09/15 00:34:52;;;;;;;3.97;3.55;;;20.20;99.90;;;;;;5043763;28;20034;-66
2021/09/15 00:37:18;;;;;;;6.50;4.25;;;20.20;99.90;;;;;;5044286;28;20079;-66
2021/09/15 00:39:43;;;;;;;5.13;4.25;;;20.10;99.90;;;;;;5052055;28;20084;-66
2021/09/15 00:42:10;;;;;;;4.85;4.35;;;20.10;99.90;;;;;;5036569;28;20050;-66
2021/09/15 00:44:36;;;;;;;5.55;4.35;;;20.10;99.90;;;;;;5046222;28;20033;-66
2021/09/15 00:47:01;;;;;;;5.22;4.43;;;20.10;99.90;;;;;;5050874;28;20477;-66
2021/09/15 00:49:27;;;;;;;4.38;4.05;;;20.10;99.90;;;;;;5052404;28;20498;-66
2021/09/15 00:51:53;;;;;;;4.55;3.95;;;20.10;99.90;;;;;;5042907;28;20510;-66
2021/09/15 00:54:19;;;;;;;4.75;4.25;;;20.10;99.90;;;;;;5031812;28;20037;-66
2021/09/15 00:56:45;;;;;;;6.20;4.50;;;20.10;99.90;;;;;;5032610;28;20029;-66
2021/09/15 00:59:13;;;;;;;7.20;4.65;;;20.00;99.90;;;;;;5032019;28;20029;-66
2021/09/15 01:01:39;;;;;;;8.95;5.00;;;20.10;99.90;;;;;;5042787;28;20532;-66
2021/09/15 01:04:05;;;;;;;6.40;4.70;;;20.00;99.90;;;;;;5044642;28;20033;-67
2021/09/15 01:06:33;;;;;;;5.20;4.70;;;20.00;99.90;;;;;;5052218;28;20033;-67
2021/09/15 01:09:04;;;;;;;5.13;4.25;;;20.00;99.90;;;;;;5052114;28;20036;-66
2021/09/15 01:11:34;;;;;;;5.47;4.97;;;20.00;99.90;;;;;;5051872;28;20470;-67
2021/09/15 01:14:00;;;;;;;4.93;4.45;;;20.00;99.90;;;;;;5039089;28;20496;-67
2021/09/15 01:16:25;;;;;;;5.80;4.90;;;20.00;99.90;;;;;;5032496;28;20041;-67
2021/09/15 01:18:51;;;;;;;4.65;4.22;;;20.00;99.90;;;;;;5032315;28;20421;-67
2021/09/15 01:21:16;;;;;;;4.90;4.38;;;19.90;99.90;;;;;;5031292;28;20026;-66
2021/09/15 01:23:42;;;;;;;8.65;5.35;;;19.90;99.90;;;;;;5032425;28;20347;-66
2021/09/15 01:26:08;;;;;;;6.63;4.78;;;19.90;99.90;;;;;;5046743;28;20104;-66
2021/09/15 01:28:33;;;;;;;8.45;5.85;;;20.00;99.90;;;;;;5052237;28;20027;-66
2021/09/15 01:30:59;;;;;;;12.80;6.72;;;19.90;99.90;;;;;;5049911;28;20029;-66
2021/09/15 01:33:25;;;;;;;9.43;6.43;;;20.00;99.90;;;;;;5030370;28;20029;-66
2021/09/15 01:35:51;;;;;;;13.50;5.22;;;20.00;99.90;;;;;;5035918;28;20051;-66
2021/09/15 01:38:17;;;;;;;7.90;5.57;;;20.00;99.90;;;;;;5051000;28;20032;-67
2021/09/15 01:40:42;;;;;;;6.68;5.28;;;19.90;99.90;;;;;;5047735;28;20037;-67
2021/09/15 01:43:09;;;;;;;7.57;5.35;;;19.90;99.90;;;;;;5050098;28;20102;-66
2021/09/15 01:45:35;;;;;;;5.88;5.25;;;19.90;99.90;;;;;;5051533;28;20035;-66
2021/09/15 01:48:00;;;;;;;7.07;5.88;;;19.90;99.90;;;;;;5051512;28;20025;-66
2021/09/15 01:50:26;;;;;;;5.18;4.50;;;19.90;99.90;;;;;;5050231;28;20021;-66
2021/09/15 01:52:52;;;;;;;5.85;5.00;;;19.80;99.90;;;;;;5047946;28;20096;-66
2021/09/15 01:55:19;;;;;;;6.50;5.22;;;19.80;99.90;;;;;;5030746;28;20029;-67
2021/09/15 01:57:45;;;;;;;8.05;5.93;;;19.80;99.90;;;;;;5029946;28;20163;-66
2021/09/15 02:00:12;;;;;;;8.13;5.22;;;19.80;99.90;;;;;;5039436;28;20112;-66
2021/09/15 02:02:37;;;;;;;6.32;5.15;;;19.70;99.90;;;;;;5033672;28;20033;-66
2021/09/15 02:05:03;;;;;;;5.88;5.22;;;19.80;99.90;;;;;;5032212;28;20545;-66
2021/09/15 02:07:29;;;;;;;10.88;7.00;;;19.70;99.90;;;;;;5050003;28;20492;-66
2021/09/15 02:09:54;;;;;;;9.57;7.57;;;19.70;99.90;;;;;;5049444;28;20025;-66
2021/09/15 02:12:20;;;;;;;8.65;6.10;;;19.70;99.90;;;;;;5043627;28;20029;-66
2021/09/15 02:14:46;;;;;;;7.45;6.05;;;19.70;99.90;;;;;;5043595;28;20028;-66
2021/09/15 02:17:11;;;;;;;6.45;5.82;;;19.70;99.90;;;;;;5050472;28;20123;-66
2021/09/15 02:19:37;;;;;;;12.93;7.00;;;19.70;99.90;;;;;;5051406;28;20039;-67
2021/09/15 02:22:03;;;;;;;10.38;6.57;;;19.70;99.90;;;;;;5038793;28;20044;-66
2021/09/15 02:24:29;;;;;;;7.90;6.13;;;19.70;99.90;;;;;;5031415;28;20041;-66
2021/09/15 02:26:55;;;;;;;10.77;7.28;;;19.70;99.90;;;;;;5044018;28;20056;-66
2021/09/15 02:29:21;;;;;;;9.38;6.65;;;19.90;99.90;;;;;;5050554;28;20617;-66
2021/09/15 02:31:46;;;;;;;10.32;6.15;;;19.90;99.90;;;;;;5050952;28;20112;-66
2021/09/15 02:34:12;;;;;;;9.18;6.28;;;19.90;99.90;;;;;;5050872;28;20033;-66
2021/09/15 02:36:38;;;;;;;7.55;6.68;;;19.90;99.90;;;;;;5035651;28;20096;-66
2021/09/15 02:39:04;;;;;;;6.50;5.30;;;19.80;99.90;;;;;;5030569;28;20026;-66
2021/09/15 02:41:29;;;;;;;6.90;6.07;;;19.80;99.90;;;;;;5040445;28;20033;-66
2021/09/15 02:43:55;;;;;;;7.28;6.57;;;19.80;99.90;;;;;;5049544;28;20037;-67
2021/09/15 02:46:21;;;;;;;6.65;6.00;;;19.80;99.90;;;;;;5049337;28;20091;-67
2021/09/15 02:48:47;;;;;;;7.38;6.47;;;19.70;99.90;;;;;;5051033;28;20108;-67
2021/09/15 02:51:12;;;;;;;6.43;5.40;;;19.70;99.90;;;;;;5030738;28;20487;-66
2021/09/15 02:53:38;;;;;;;8.07;6.40;;;19.70;99.90;;;;;;5031869;28;20033;-66
2021/09/15 02:56:04;;;;;;;6.72;5.90;;;19.70;99.90;;;;;;5030829;28;20104;-66
2021/09/15 02:58:30;;;;;;;8.43;6.18;;;19.70;99.90;;;;;;5030837;28;20391;-66
2021/09/15 03:00:55;;;;;;;7.38;6.47;;;19.70;99.90;;;;;;5034446;28;20025;-66
2021/09/15 03:03:21;;;;;;;7.35;5.85;;;19.70;99.90;;;;;;5054034;28;20033;-66
2021/09/15 03:05:47;;;;;;;6.47;5.88;;;19.60;99.90;;;;;;5053744;28;20029;-66
2021/09/15 03:08:12;;;;;;;10.32;6.70;;;19.60;99.90;;;;;;5054204;28;20462;-66
2021/09/15 03:10:38;;;;;;;9.30;7.00;;;19.60;99.90;;;;;;5052975;28;20370;-66
2021/09/15 03:13:04;;;;;;;7.32;6.47;;;19.60;99.90;;;;;;5051780;28;20484;-67
2021/09/15 03:15:29;;;;;;;6.63;5.70;;;19.60;99.90;;;;;;5052182;28;20021;-66
2021/09/15 03:17:55;;;;;;;6.90;6.03;;;19.70;99.90;;;;;;5040659;28;20466;-66
2021/09/15 03:20:21;;;;;;;6.45;5.85;;;19.60;99.90;;;;;;5053916;28;20021;-66
2021/09/15 03:22:46;;;;;;;8.60;7.07;;;19.60;99.90;;;;;;5054325;28;20029;-66
2021/09/15 03:25:12;;;;;;;9.70;7.13;;;19.60;99.90;;;;;;5052526;28;20025;-66
2021/09/15 03:27:38;;;;;;;7.30;6.60;;;19.70;99.90;;;;;;5053805;28;20382;-66
2021/09/15 03:30:05;;;;;;;7.15;6.45;;;19.70;99.90;;;;;;5054415;28;20025;-66
2021/09/15 03:32:31;;;;;;;8.20;6.80;;;19.70;99.90;;;;;;5053053;28;20033;-66
2021/09/15 03:34:57;;;;;;;9.27;6.57;;;19.70;99.90;;;;;;5053787;28;20454;-66
2021/09/15 03:37:22;;;;;;;7.30;6.53;;;19.70;99.90;;;;;;5051861;28;20132;-67
2021/09/15 03:39:48;;;;;;;14.07;7.20;;;19.80;99.90;;;;;;5054051;28;20403;-66
2021/09/15 03:42:14;;;;;;;8.95;6.47;;;19.80;99.90;;;;;;5037847;28;20041;-66
2021/09/15 03:44:39;;;;;;;8.85;6.32;;;19.70;99.90;;;;;;5034323;28;20043;-67
2021/09/15 03:47:05;;;;;;;8.90;6.65;;;19.70;99.90;;;;;;5048314;28;20470;-66
2021/09/15 03:49:30;;;;;;;9.75;7.43;;;19.70;99.90;;;;;;5053024;28;20037;-66
2021/09/15 03:51:56;;;;;;;9.75;7.13;;;19.70;99.90;;;;;;5053141;28;20466;-67
2021/09/15 03:54:22;;;;;;;12.48;8.05;;;19.70;99.90;;;;;;5052959;28;20047;-67
2021/09/15 03:56:47;;;;;;;10.52;7.75;;;19.70;99.90;;;;;;5053498;28;20027;-66
2021/09/15 03:59:13;;;;;;;10.00;6.72;;;19.60;99.90;;;;;;5053266;28;20063;-66
2021/09/15 04:01:38;;;;;;;8.35;6.93;;;19.60;99.90;;;;;;5053010;28;20462;-66
2021/09/15 04:04:04;;;;;;;10.00;7.15;;;19.60;99.90;;;;;;5053251;28;20033;-66
2021/09/15 04:06:30;;;;;;;10.77;7.03;;;19.60;99.90;;;;;;5038487;28;20036;-66
2021/09/15 04:08:55;;;;;;;9.00;6.70;;;19.60;99.90;;;;;;5033352;28;20025;-66
2021/09/15 04:11:21;;;;;;;8.30;7.38;;;19.50;99.90;;;;;;5042547;28;20086;-66
2021/09/15 04:13:47;;;;;;;11.63;7.28;;;19.50;99.90;;;;;;5051724;28;20060;-66
2021/09/15 04:16:12;;;;;;;9.30;6.70;;;19.40;99.90;;;;;;5037950;28;20533;-66
2021/09/15 04:18:38;;;;;;;11.57;6.63;;;19.40;99.90;;;;;;5053234;28;20021;-67
2021/09/15 04:21:04;;;;;;;13.05;7.32;;;19.30;99.90;;;;;;5053405;28;20028;-67
2021/09/15 04:31:35;;;;;;;10.77;7.55;;;19.20;99.90;;;;;;5048386;28;20056;-67
2021/09/15 04:34:02;;;;;;;8.82;6.30;;;19.20;99.90;;;;;;5051746;28;20029;-67
2021/09/15 04:36:28;;;;;;;8.13;6.53;;;19.30;99.90;;;;;;5050068;28;20147;-68
2021/09/15 04:38:54;;;;;;;7.57;5.85;;;19.40;99.90;;;;;;5050022;28;20056;-68
2021/09/15 04:41:20;;;;;;;8.23;6.85;;;19.40;99.90;;;;;;5050536;28;20449;-68
2021/09/15 04:43:45;;;;;;;9.52;6.05;;;19.50;99.90;;;;;;5047315;28;20045;-67
2021/09/15 04:46:11;;;;;;;7.80;5.95;;;19.50;99.90;;;;;;5048064;28;20494;-67
2021/09/15 04:48:38;;;;;;;8.18;6.20;;;19.50;99.90;;;;;;5051570;28;20112;-66
2021/09/15 04:51:04;;;;;;;6.28;5.50;;;19.50;99.90;;;;;;5051236;28;20024;-67
2021/09/15 04:53:30;;;;;;;6.65;5.78;;;19.50;99.90;;;;;;5049018;28;20033;-66
2021/09/15 04:55:56;;;;;;;6.57;5.63;;;19.60;99.90;;;;;;5051328;28;20086;-66
2021/09/15 04:58:22;;;;;;;7.50;5.10;;;19.60;99.90;;;;;;5049681;28;20028;-66
2021/09/15 05:00:47;;;;;;;7.13;4.80;;;19.60;99.90;;;;;;5050533;28;20039;-67
2021/09/15 05:03:13;;;;;;;7.28;4.93;;;19.60;99.90;;;;;;5049124;28;20037;-67
2021/09/15 05:05:39;;;;;;;7.07;5.18;;;19.70;99.90;;;;;;5050899;28;20029;-67
2021/09/15 05:08:04;;;;;;;7.30;4.68;;;19.80;99.90;;;;;;5050779;28;20024;-67
2021/09/15 05:10:30;;;;;;;6.68;5.05;;;19.80;99.90;;;;;;5048913;28;20025;-67
2021/09/15 05:12:57;;;;;;;12.73;5.10;;;19.90;99.90;;;;;;5050400;28;20439;-68
2021/09/15 05:15:23;;;;;;;7.90;5.30;;;19.70;99.90;;;;;;5046079;28;20024;-68
2021/09/15 05:17:50;;;;;;;7.75;5.47;;;19.60;99.90;;;;;;5050772;28;20082;-70
2021/09/15 05:20:18;;;;;;;9.48;6.40;;;19.40;99.90;;;;;;5050013;28;20035;-69
2021/09/15 05:22:48;;;;;;;7.35;5.88;;;19.30;99.90;;;;;;5047819;28;20037;-68
2021/09/15 05:25:15;;;;;;;7.18;5.45;;;19.10;99.90;;;;;;5048948;28;20482;-68
2021/09/15 05:27:41;;;;;;;8.15;5.68;;;19.10;99.90;;;;;;5048703;28;20033;-68
2021/09/15 05:30:08;;;;;;;7.65;5.88;;;19.00;99.90;;;;;;5050554;28;20025;-69
2021/09/15 05:32:34;;;;;;;8.40;5.80;;;18.90;99.90;;;;;;5050763;28;20017;-69
2021/09/15 05:35:00;;;;;;;12.10;5.78;;;18.90;99.90;;;;;;5050682;28;20109;-68
2021/09/15 05:37:26;;;;;;;11.43;6.70;;;18.80;99.90;;;;;;5049618;28;20565;-70
2021/09/15 05:39:51;;;;;;;7.60;6.43;;;18.70;99.90;;;;;;5049937;28;20078;-70
2021/09/15 05:42:17;;;;;;;10.93;6.47;;;18.70;99.90;;;;;;5046824;28;20053;-69
2021/09/15 05:44:43;;;;;;;8.13;6.20;;;18.60;99.90;;;;;;5042850;28;20479;-72
2021/09/15 05:47:08;;;;;;;12.02;7.20;;;18.60;99.90;;;;;;5050157;28;20508;-70
2021/09/15 05:49:34;;;;;;;10.15;6.90;;;18.60;99.90;;;;;;5050989;28;20036;-70
2021/09/15 05:52:00;;;;;;;7.95;7.00;;;18.50;99.90;;;;;;5050569;28;20028;-70
2021/09/15 05:54:25;;;;;;;10.98;7.18;;;18.50;99.90;;;;;;5036884;28;20033;-70
2021/09/15 05:56:51;;;;;;;12.82;7.38;;;18.50;99.90;;;;;;5044757;28;20108;-71
2021/09/15 05:59:17;;;;;;;9.88;6.38;;;18.50;99.90;;;;;;5032512;28;20372;-70
2021/09/15 06:01:42;;;;;;;9.88;6.32;;;18.50;99.90;;;;;;5041608;28;20036;-70
2021/09/15 06:04:08;;;;;;;11.65;6.70;;;18.50;99.90;;;;;;5036359;28;20134;-70
2021/09/15 06:06:33;;;;;;;7.65;6.05;;;18.50;99.90;;;;;;5051010;28;20492;-71
2021/09/15 06:08:59;;;;;;;10.10;7.03;;;18.50;99.90;;;;;;5037022;28;20501;-75
2021/09/15 06:11:26;;;;;;;8.63;6.78;;;18.50;99.90;;;;;;5043544;28;20037;-70
2021/09/15 06:13:54;;;;;;;7.72;6.63;;;18.50;99.90;;;;;;5045418;28;20467;-70
2021/09/15 06:16:20;;;;;;;12.60;7.15;;;18.50;99.90;;;;;;5048644;28;20052;-70
2021/09/15 06:18:46;;;;;;;10.27;7.10;;;18.50;99.90;;;;;;5051030;28;20060;-76
2021/09/15 06:21:11;;;;;;;10.40;6.95;;;18.50;99.90;;;;;;5051224;28;20094;-69
2021/09/15 06:23:37;;;;;;;11.75;7.25;;;18.40;99.90;;;;;;5050839;28;20457;-70
2021/09/15 06:26:03;;;;;;;9.32;7.95;;;18.50;99.90;;;;;;5043703;28;20025;-70
2021/09/15 06:28:29;;;;;;;11.05;7.82;;;18.40;99.90;;;;;;5049296;28;20324;-71
2021/09/15 06:30:56;;;;;;;14.20;7.72;;;18.40;99.90;;;;;;5039295;28;20025;-70
2021/09/15 06:33:21;;;;;;;11.30;7.03;;;18.40;99.90;;;;;;5051180;28;20116;-71
2021/09/15 06:35:48;;;;;;;9.85;7.05;;;18.40;99.90;;;;;;5050439;28;20060;-72
2021/09/15 06:38:13;;;;;;;14.00;7.28;;;18.40;99.90;;;;;;5053923;28;20037;-70
2021/09/15 06:40:40;;;;;;;9.77;7.15;;;18.30;99.90;;;;;;5053990;28;20025;-69
2021/09/15 06:43:06;;;;;;;8.50;6.82;;;18.40;99.90;;;;;;5041967;28;20068;-70
2021/09/15 06:45:32;;;;;;;9.98;7.10;;;18.40;99.90;;;;;;5051925;28;20612;-69
2021/09/15 06:47:57;;;;;;;12.93;7.53;;;18.40;99.90;;;;;;5037587;28;20029;-69
2021/09/15 06:50:23;;;;;;;10.48;6.65;;;18.40;99.90;;;;;;5035630;28;20043;-69
2021/09/15 06:52:49;;;;;;;7.97;6.78;;;18.40;99.90;;;;;;5036943;28;20025;-70
2021/09/15 06:55:14;;;;;;;13.85;7.07;;;18.40;99.90;;;;;;5048414;28;20053;-70
2021/09/15 06:57:40;;;;;;;10.98;6.97;;;18.40;99.90;;;;;;5037218;28;20063;-70
2021/09/15 07:00:08;;;;;;;9.25;7.10;;;18.40;99.90;;;;;;5055544;28;20070;-70
2021/09/15 07:02:34;;;;;;;8.77;6.18;;;18.40;99.90;;;;;;5033890;28;20021;-70
2021/09/15 07:04:59;;;;;;;10.55;6.88;;;18.50;99.90;;;;;;5034467;28;20044;-70
2021/09/15 07:07:25;;;;;;;9.57;6.60;;;18.40;99.90;;;;;;5033716;28;20453;-70
2021/09/15 07:09:51;;;;;;;8.93;6.30;;;18.40;99.90;;;;;;5041450;28;20031;-70
2021/09/15 07:12:16;;;;;;;7.05;6.22;;;18.50;99.90;;;;;;5052867;28;20116;-69
2021/09/15 07:14:42;;;;;;;12.10;7.65;;;18.50;99.90;;;;;;5054983;28;20482;-69
2021/09/15 07:17:08;;;;;;;12.18;6.60;;;18.50;99.90;;;;;;5037633;28;20041;-69
2021/09/15 07:19:34;;;;;;;9.40;6.40;;;18.50;99.90;;;;;;5040217;28;20016;-69
2021/09/15 07:21:59;;;;;;;7.40;5.80;;;18.50;99.90;;;;;;5057469;28;20058;-69
2021/09/15 07:24:25;;;;;;;7.00;5.53;;;18.60;99.90;;;;;;5052593;28;20390;-71
2021/09/15 07:26:52;;;;;;;7.85;5.43;;;18.60;99.90;;;;;;5052857;28;20366;-67
2021/09/15 07:29:18;;;;;;;11.40;5.93;;;18.60;99.90;;;;;;5053279;28;20035;-67
2021/09/15 07:31:44;;;;;;;9.82;6.78;;;18.70;99.90;;;;;;5045806;28;20327;-67
2021/09/15 07:34:09;;;;;;;11.93;7.00;;;18.70;99.90;;;;;;5053915;28;20040;-67
2021/09/15 07:36:36;;;;;;;12.15;7.55;;;18.70;99.90;;;;;;5053322;28;20505;-67
2021/09/15 07:39:03;;;;;;;9.75;7.18;;;18.80;99.90;;;;;;5054279;28;20036;-67
2021/09/15 07:41:29;;;;;;;8.65;6.45;;;18.80;99.90;;;;;;5052058;28;20386;-67
2021/09/15 07:43:54;;;;;;;10.15;7.20;;;18.90;99.90;;;;;;5053084;28;20045;-67
2021/09/15 07:46:21;;;;;;;7.53;5.75;;;18.90;99.90;;;;;;5052864;28;20040;-67
2021/09/15 07:48:48;;;;;;;12.48;6.70;;;18.90;99.90;;;;;;5051058;28;20053;-67
2021/09/15 07:51:15;;;;;;;8.38;4.95;;;18.90;99.90;;;;;;5039264;28;20454;-67
2021/09/15 07:53:41;;;;;;;7.28;4.50;;;19.00;99.90;;;;;;5034892;28;20038;-67
2021/09/15 07:56:07;;;;;;;7.75;5.00;;;19.00;99.90;;;;;;5046853;28;20107;-67
2021/09/15 07:58:32;;;;;;;9.65;5.28;;;19.10;99.90;;;;;;5042842;28;20095;-67
2021/09/15 08:00:58;;;;;;;11.55;5.57;;;19.10;99.90;;;;;;5034199;28;20507;-67
2021/09/15 08:03:23;;;;;;;7.07;4.43;;;19.10;99.90;;;;;;5032956;28;20120;-67
2021/09/15 08:05:49;;;;;;;13.38;5.30;;;19.20;99.90;;;;;;5033928;28;20057;-67
2021/09/15 08:08:15;;;;;;;8.25;4.65;;;19.20;99.90;;;;;;5032821;28;20026;-67
2021/09/15 08:10:41;;;;;;;7.15;4.43;;;19.30;99.90;;;;;;5036676;28;20025;-67
2021/09/15 08:13:07;;;;;;;11.23;4.40;;;19.30;99.90;;;;;;5040450;28;20029;-67
2021/09/15 08:15:33;;;;;;;9.23;4.10;;;19.40;99.90;;;;;;5049375;28;20029;-67
2021/09/15 08:17:59;;;;;;;4.57;3.90;;;19.40;99.90;;;;;;5033431;28;20030;-67
2021/09/15 08:20:24;;;;;;;10.02;4.10;;;19.50;99.90;;;;;;5050625;28;20024;-67
2021/09/15 08:22:50;;;;;;;8.05;4.10;;;19.50;99.90;;;;;;5041325;28;20040;-67
2021/09/15 08:25:16;;;;;;;9.45;4.57;;;19.50;99.90;;;;;;5050592;28;20040;-67
2021/09/15 08:27:42;;;;;;;7.45;4.28;;;19.60;99.90;;;;;;5052441;28;20024;-67
2021/09/15 08:30:09;;;;;;;9.75;4.57;;;19.60;99.90;;;;;;5052593;28;20393;-67
2021/09/15 08:32:35;;;;;;;8.52;4.78;;;19.60;99.90;;;;;;5040768;28;20104;-67
2021/09/15 08:35:00;;;;;;;8.63;4.93;;;19.60;99.90;;;;;;5042075;28;20183;-67
2021/09/15 08:37:26;;;;;;;9.23;4.95;;;19.60;99.90;;;;;;5047654;28;20029;-68
2021/09/15 08:39:52;;;;;;;9.45;4.90;;;19.70;99.90;;;;;;5040171;28;20029;-67
2021/09/15 08:42:17;;;;;;;10.02;5.10;;;19.70;99.90;;;;;;5047558;28;20441;-72
2021/09/15 08:44:43;;;;;;;10.00;5.25;;;19.80;99.90;;;;;;5047546;28;20065;-67
2021/09/15 08:47:09;;;;;;;5.95;4.80;;;19.90;99.90;;;;;;5034114;28;20038;-68
2021/09/15 08:49:36;;;;;;;8.93;4.72;;;19.90;99.90;;;;;;5039453;28;20024;-67
2021/09/15 08:52:01;;;;;;;9.77;5.38;;;19.80;99.90;;;;;;5048962;28;20087;-68
2021/09/15 08:54:27;;;;;;;8.00;5.70;;;19.70;99.90;;;;;;5032191;28;20045;-68
2021/09/15 08:56:53;;;;;;;9.27;5.78;;;19.60;99.90;;;;;;5044664;28;20036;-67
2021/09/15 08:59:19;;;;;;;10.05;5.28;;;19.50;99.90;;;;;;5043930;28;20394;-67
2021/09/15 09:01:45;;;;;;;7.70;5.22;;;19.40;99.90;;;;;;5042351;28;20040;-67
2021/09/15 09:04:16;;;;;;;10.63;5.57;;;19.30;99.90;;;;;;5052505;28;20033;-67
2021/09/15 09:06:46;;;;;;;6.93;4.30;;;19.20;99.90;;;;;;5052245;28;20113;-68
2021/09/15 09:09:12;;;;;;;10.05;5.20;;;19.20;99.90;;;;;;5051198;28;20079;-67
2021/09/15 09:11:38;;;;;;;8.32;5.03;;;19.10;99.90;;;;;;5039201;28;20034;-67
2021/09/15 09:14:07;;;;;;;8.75;5.05;;;19.10;99.90;;;;;;5045559;28;20488;-67
2021/09/15 09:16:48;;;;;;;9.27;4.80;;;19.00;99.90;;;;;;5040785;28;20022;-67
2021/09/15 09:19:19;;;;;;;11.82;5.60;;;19.00;99.90;;;;;;5040861;28;20032;-67
2021/09/15 09:21:48;;;;;;;5.68;4.40;;;19.00;99.90;;;;;;5046568;28;20057;-67
2021/09/15 09:24:17;;;;;;;6.72;4.65;;;19.00;99.90;;;;;;5031954;28;20124;-67
2021/09/15 09:27:09;;;;;;;6.03;4.03;;;19.00;99.90;;;;;;5043749;28;20509;-67
2021/09/15 09:29:37;;;;;;;8.93;4.43;;;19.00;99.90;;;;;;5050269;28;20063;-67
2021/09/15 09:32:15;;;;;;;9.25;4.97;;;18.90;99.90;;;;;;5049133;28;20036;-67
2021/09/15 09:34:46;;;;;;;6.57;4.30;;;18.80;99.90;;;;;;5051118;28;20025;-67
2021/09/15 09:37:18;;;;;;;7.53;5.10;;;18.80;99.90;;;;;;5035985;28;20091;-67
2021/09/15 09:39:46;;;;;;;6.28;4.13;;;18.70;99.90;;;;;;5031839;28;20418;-67
2021/09/15 09:42:25;;;;;;;7.35;4.53;;;18.60;99.90;;;;;;5043146;28;20056;-67
2021/09/15 09:45:05;;;;;;;7.72;4.10;;;18.50;99.90;;;;;;5045710;28;20029;-67
2021/09/15 09:47:32;;;;;;;6.18;4.43;;;18.50;99.90;;;;;;5031314;28;20071;-67
2021/09/15 09:50:16;;;;;;;7.93;4.63;;;18.50;99.90;;;;;;5045352;28;20078;-67
2021/09/15 09:53:02;;;;;;;8.27;5.20;;;18.60;99.90;;;;;;5031708;28;20025;-67
2021/09/15 09:55:33;;;;;;;13.27;4.45;;;18.70;99.90;;;;;;5030893;28;20029;-67
2021/09/15 09:58:01;;;;;;;9.20;4.88;;;18.80;99.90;;;;;;5031663;28;20041;-68
2021/09/15 10:00:27;;;;;;;8.00;4.45;;;18.90;99.90;;;;;;5030551;28;20042;-67
2021/09/15 10:02:53;;;;;;;8.20;5.07;;;19.00;99.90;;;;;;5031612;28;20033;-67
2021/09/15 10:05:20;;;;;;;5.68;4.25;;;19.10;99.90;;;;;;5030769;28;20026;-67
2021/09/15 10:07:48;;;;;;;6.53;4.30;;;19.30;99.90;;;;;;5051546;28;20064;-67
2021/09/15 10:10:19;;;;;;;6.15;3.92;;;19.40;99.90;;;;;;5051592;28;20044;-67
2021/09/15 10:12:45;;;;;;;6.80;4.75;;;19.50;99.90;;;;;;5041086;28;20033;-67
2021/09/15 10:15:13;;;;;;;8.38;4.25;;;19.70;99.90;;;;;;5057222;28;20398;-68
2021/09/15 10:17:50;;;;;;;5.32;4.70;;;19.80;99.90;;;;;;5037872;28;20324;-67
2021/09/15 10:20:21;;;;;;;5.68;4.03;;;19.90;99.90;;;;;;5045782;28;20364;-67
2021/09/15 10:22:49;;;;;;;7.38;4.43;;;20.10;99.90;;;;;;5038182;28;20507;-67
2021/09/15 10:25:15;;;;;;;4.93;4.03;;;20.30;99.90;;;;;;5037874;28;20072;-67
2021/09/15 10:27:57;;;;;;;7.05;4.40;;;20.50;99.90;;;;;;5055755;28;20029;-68
2021/09/15 10:30:43;;;;;;;9.40;4.60;;;20.60;99.90;;;;;;5047761;28;20387;-67
2021/09/15 10:33:37;;;;;;;7.60;4.22;;;20.80;99.90;;;;;;5038637;28;20034;-71
2021/09/15 10:36:11;;;;;;;5.90;4.18;;;20.90;99.90;;;;;;5043107;28;20025;-67
2021/09/15 10:38:54;;;;;;;9.23;4.43;;;21.00;99.90;;;;;;5057446;28;20036;-68
2021/09/15 10:41:42;;;;;;;6.13;3.80;;;21.10;99.90;;;;;;5048268;28;20033;-67
2021/09/15 10:44:13;;;;;;;6.32;4.03;;;21.20;99.90;;;;;;5051873;28;20535;-67
2021/09/15 10:46:40;;;;;;;6.25;3.80;;;21.20;99.90;;;;;;5044394;28;20048;-67
2021/09/15 10:49:35;;;;;;;5.63;4.15;;;21.30;99.90;;;;;;5044845;28;20530;-67
2021/09/15 10:52:07;;;;;;;7.28;4.25;;;21.20;99.90;;;;;;5044143;28;20048;-67
2021/09/15 10:54:51;;;;;;;10.98;4.65;;;21.10;99.90;;;;;;5056829;28;20029;-67
2021/09/15 10:57:28;;;;;;;5.00;4.10;;;21.00;99.90;;;;;;5052552;28;20048;-67
2021/09/15 11:00:00;;;;;;;8.38;4.40;;;21.00;99.90;;;;;;5039592;28;20044;-75
2021/09/15 11:02:31;;;;;;;8.73;4.28;;;20.90;99.90;;;;;;5036825;28;20052;-75
2021/09/15 11:04:59;;;;;;;6.43;4.00;;;20.90;99.90;;;;;;5039002;28;20040;-73
2021/09/15 11:07:43;;;;;;;6.40;4.07;;;20.90;99.90;;;;;;5037606;28;20031;-70
2021/09/15 11:10:10;;;;;;;6.72;4.45;;;20.90;99.90;;;;;;5039831;28;20033;-71
2021/09/15 11:12:45;;;;;;;9.95;4.88;;;21.10;99.90;;;;;;5056122;28;20044;-70
2021/09/15 11:15:34;;;;;;;8.85;4.38;;;21.20;99.90;;;;;;5056867;28;20100;-70
2021/09/15 11:18:00;;;;;;;5.30;3.90;;;21.30;99.90;;;;;;5057605;28;20111;-70
2021/09/15 11:20:28;;;;;;;7.93;4.25;;;21.40;99.90;;;;;;5055667;28;20382;-70
2021/09/15 11:22:55;;;;;;;4.60;4.07;;;21.40;99.90;;;;;;5056212;28;20044;-70
2021/09/15 11:25:23;;;;;;;6.53;4.00;;;21.50;99.90;;;;;;5051482;28;20033;-70
2021/09/15 11:28:08;;;;;;;6.70;3.80;;;21.70;99.90;;;;;;5045012;28;20041;-72
2021/09/15 11:30:36;;;;;;;5.13;4.25;;;21.80;99.90;;;;;;5035169;28;20057;-70
2021/09/15 11:33:02;;;;;;;5.70;4.07;;;21.90;99.90;;;;;;5035393;28;20112;-70
2021/09/15 11:35:32;;;;;;;6.25;4.13;;;21.90;99.90;;;;;;5034030;28;20117;-70
2021/09/15 11:37:58;;;;;;;6.10;3.95;;;22.00;99.90;;;;;;5041201;28;20017;-70
2021/09/15 11:40:29;;;;;;;5.50;3.85;;;22.10;99.90;;;;;;5047107;28;20052;-70
2021/09/15 11:42:56;;;;;;;6.40;3.85;;;22.20;99.90;;;;;;5050292;28;20053;-68
2021/09/15 11:45:23;;;;;;;5.95;3.88;;;22.20;99.90;;;;;;5032823;28;20037;-68
2021/09/15 11:47:54;;;;;;;4.72;3.95;;;22.20;99.90;;;;;;5033702;28;20033;-68
2021/09/15 11:50:25;;;;;;;9.65;3.97;;;22.20;99.90;;;;;;5033168;28;20060;-68
2021/09/15 11:52:55;;;;;;;;;;;22.10;99.90;;;;;;5034399;28;20462;-68
2021/09/15 11:55:21;;;;;;;5.95;4.13;;;22.00;99.90;;;;;;5034639;28;20282;-68
2021/09/15 11:57:48;;;;;;;6.32;4.35;;;21.90;99.90;;;;;;5052437;28;20044;-68
2021/09/15 12:00:15;;;;;;;10.23;4.28;;;21.80;99.90;;;;;;5049969;28;20032;-68
2021/09/15 12:02:44;;;;;;;4.78;4.22;;;21.80;99.90;;;;;;5052575;28;20025;-68
2021/09/15 12:05:11;;;;;;;6.85;4.38;;;21.70;99.90;;;;;;5053223;28;20021;-68
2021/09/15 12:07:38;;;;;;;8.68;4.57;;;21.70;99.90;;;;;;5051505;28;20037;-68
2021/09/15 12:10:08;;;;;;;10.88;4.82;;;21.70;99.90;;;;;;5045328;28;20067;-68
2021/09/15 12:12:35;;;;;;;5.93;4.07;;;21.70;99.90;;;;;;5038031;28;20052;-69
2021/09/15 12:15:01;;;;;;;6.03;4.15;;;21.70;99.90;;;;;;5052272;28;20043;-68
2021/09/15 12:17:27;;;;;;;7.07;4.15;;;21.80;99.90;;;;;;5034346;28;20387;-68
2021/09/15 12:19:56;;;;;;;6.72;3.80;;;21.80;99.90;;;;;;5034841;28;20387;-69
2021/09/15 12:22:24;;;;;;;6.57;4.18;;;21.80;99.90;;;;;;5032654;28;20041;-67
2021/09/15 12:25:07;;;;;;;5.85;3.90;;;21.80;99.90;;;;;;5032041;28;20052;-68
2021/09/15 12:27:34;;;;;;;7.05;4.20;;;21.80;99.90;;;;;;5040047;28;20036;-68
2021/09/15 12:30:09;;;;;;;9.50;4.28;;;21.80;99.90;;;;;;5049317;28;20029;-68
2021/09/15 12:32:37;;;;;;;6.22;3.70;;;21.80;99.90;;;;;;5053932;28;20040;-67
2021/09/15 12:35:27;;;;;;;5.47;3.95;;;21.80;99.90;;;;;;5051448;28;20040;-68
2021/09/15 12:38:05;;;;;;;6.57;4.13;;;21.80;99.90;;;;;;5049272;28;20254;-67
2021/09/15 12:40:32;;;;;;;7.78;4.10;;;21.80;99.90;;;;;;5051640;28;20044;-68
2021/09/15 12:43:02;;;;;;;6.88;4.22;;;21.80;99.90;;;;;;5046793;28;20394;-68
2021/09/15 12:45:29;;;;;;;5.88;3.97;;;21.90;99.90;;;;;;5042683;28;20494;-68
2021/09/15 12:47:55;;;;;;;7.28;3.95;;;22.00;99.90;;;;;;5044627;28;20033;-68
2021/09/15 12:50:23;;;;;;;6.63;4.10;;;22.00;99.90;;;;;;5042629;28;20029;-68
2021/09/15 12:52:59;;;;;;;5.47;4.25;;;22.10;99.90;;;;;;5035649;28;20352;-68
2021/09/15 12:55:27;;;;;;;5.22;4.05;;;22.20;99.90;;;;;;5052007;28;20052;-68